Time;durP1;ratioP1;P1;durP2;ratioP2;P2;SDS_P1;SDS_P2;PMS_P1;PMS_P2;Temp;Humidity;BMP_temperature;BMP_pressure;BME280_temperature;BME280_humidity;BME280_pressure;Samples;Min_cycle;Max_cycle;Signal;HPM_P1;HPM_P2
2021/12/29 00:01:00;;;;;;;14.73;1.77;;;;;;;9.18;83.81;98500.50;5056687;28;20106;-85
2021/12/29 00:03:27;;;;;;;14.00;2.63;;;;;;;9.19;83.93;98501.38;5072065;28;20055;-85
2021/12/29 00:05:53;;;;;;;15.00;2.13;;;;;;;9.19;83.59;98510.13;5043437;28;20036;-84
2021/12/29 00:08:20;;;;;;;14.35;2.00;;;;;;;9.20;83.67;98518.91;5075177;28;20109;-85
2021/12/29 00:10:54;;;;;;;16.58;2.80;;;;;;;9.20;83.69;98514.44;5042236;28;20039;-85
2021/12/29 00:13:22;;;;;;;15.65;2.35;;;;;;;9.21;83.75;98521.41;5040118;28;20036;-85
2021/12/29 00:15:56;;;;;;;18.63;2.17;;;;;;;9.22;83.68;98514.28;5039319;28;20055;-85
2021/12/29 00:18:33;;;;;;;12.80;1.98;;;;;;;9.17;83.61;98530.66;5019098;28;20041;-85
2021/12/29 00:21:02;;;;;;;14.48;1.88;;;;;;;9.20;83.92;98537.44;5018359;28;20488;-85
2021/12/29 00:23:29;;;;;;;17.05;1.95;;;;;;;9.21;83.94;98539.09;5023753;28;20135;-85
2021/12/29 00:26:15;;;;;;;10.82;1.98;;;;;;;9.17;83.86;98543.06;5030151;28;20055;-85
2021/12/29 00:28:42;;;;;;;15.00;1.92;;;;;;;9.17;83.94;98548.38;5048985;28;20087;-85
2021/12/29 00:31:08;;;;;;;9.55;2.15;;;;;;;9.17;84.25;98558.97;5050441;28;20048;-85
2021/12/29 00:33:54;;;;;;;14.15;2.72;;;;;;;9.18;84.07;98564.09;5035887;28;20048;-86
2021/12/29 00:36:40;;;;;;;14.60;2.03;;;;;;;9.20;84.11;98574.53;4987631;28;20051;-85
2021/12/29 00:39:25;;;;;;;15.70;2.13;;;;;;;9.22;84.25;98561.97;5035657;28;20048;-85
2021/12/29 00:42:10;;;;;;;10.70;2.08;;;;;;;9.16;84.21;98566.09;5034889;28;20531;-85
2021/12/29 00:44:56;;;;;;;12.68;2.53;;;;;;;9.15;84.47;98572.34;5050315;28;20401;-85
2021/12/29 00:47:23;;;;;;;6.38;1.65;;;;;;;9.17;84.38;98580.97;5034232;28;20121;-84
2021/12/29 00:49:50;;;;;;;14.25;2.17;;;;;;;9.17;84.70;98580.16;5054324;28;20045;-85
2021/12/29 00:52:16;;;;;;;16.13;2.10;;;;;;;9.17;84.34;98575.69;5071610;28;20681;-85
2021/12/29 00:54:44;;;;;;;18.77;2.78;;;;;;;9.16;84.41;98587.25;5024321;28;20044;-84
2021/12/29 00:57:11;;;;;;;19.40;2.22;;;;;;;9.16;84.42;98586.41;5073520;28;20076;-85
2021/12/29 00:59:38;;;;;;;18.25;2.95;;;;;;;9.15;84.67;98588.25;5046402;28;20051;-85
2021/12/29 01:02:05;;;;;;;12.32;2.40;;;;;;;9.15;84.71;98598.81;5064406;28;20048;-85
2021/12/29 01:04:33;;;;;;;17.35;2.63;;;;;;;9.16;84.72;98591.72;5042832;28;20452;-85
2021/12/29 01:06:59;;;;;;;12.98;2.40;;;;;;;9.16;84.90;98602.31;5075175;28;20413;-86
2021/12/29 01:09:26;;;;;;;15.48;2.70;;;;;;;9.18;84.91;98606.47;5054221;28;20776;-85
2021/12/29 01:11:56;;;;;;;13.57;2.70;;;;;;;9.18;84.94;98609.09;5067737;28;20040;-84
2021/12/29 01:14:26;;;;;;;11.60;2.60;;;;;;;9.18;84.47;98606.47;5052703;28;20044;-84
2021/12/29 01:16:53;;;;;;;14.57;2.92;;;;;;;9.20;84.80;98630.97;5076882;28;20051;-84
2021/12/29 01:19:25;;;;;;;14.40;2.65;;;;;;;9.15;84.44;98643.84;5049348;28;20552;-85
2021/12/29 01:21:55;;;;;;;14.43;2.17;;;;;;;9.16;84.62;98648.19;5068114;28;20160;-85
2021/12/29 01:24:22;;;;;;;10.05;2.03;;;;;;;9.18;84.84;98659.44;5066943;28;20564;-84
2021/12/29 01:26:50;;;;;;;16.23;3.83;;;;;;;9.18;84.83;98658.59;5030266;28;20049;-85
2021/12/29 01:29:17;;;;;;;14.52;2.10;;;;;;;9.20;84.79;98653.97;5080316;28;20131;-85
2021/12/29 01:31:45;;;;;;;7.93;2.78;;;;;;;9.18;84.73;98659.44;5044861;28;20043;-85
2021/12/29 01:34:12;;;;;;;12.93;3.00;;;;;;;9.20;84.90;98654.81;5071990;28;20510;-85
2021/12/29 01:36:39;;;;;;;6.82;1.70;;;;;;;9.21;84.91;98667.09;5031911;28;20041;-85
2021/12/29 01:39:15;;;;;;;15.43;2.58;;;;;;;9.17;84.38;98668.38;5058617;28;20045;-85
2021/12/29 01:41:43;;;;;;;13.00;2.10;;;;;;;9.22;84.77;98684.63;5077658;28;20483;-85
2021/12/29 01:44:11;;;;;;;13.90;2.38;;;;;;;9.20;84.87;98691.06;5053013;28;20101;-85
2021/12/29 01:46:38;;;;;;;10.13;1.65;;;;;;;9.20;85.10;98691.06;5029820;28;20117;-85
2021/12/29 01:49:07;;;;;;;17.08;2.22;;;;;;;9.26;84.96;98704.53;5060594;28;20377;-83
2021/12/29 01:51:35;;;;;;;9.75;2.33;;;;;;;9.22;84.99;98708.47;5049268;28;20050;-85
2021/12/29 01:54:24;;;;;;;10.75;1.65;;;;;;;9.23;84.58;98711.94;5050219;28;20044;-85
2021/12/29 01:56:53;;;;;;;8.88;1.40;;;;;;;9.19;84.89;98732.63;5059720;28;20051;-84
2021/12/29 01:59:21;;;;;;;8.73;1.55;;;;;;;9.21;84.87;98722.72;5060179;28;20931;-85
2021/12/29 02:01:49;;;;;;;5.32;1.92;;;;;;;9.21;84.83;98722.72;5064534;28;20491;-85
2021/12/29 02:04:16;;;;;;;10.05;2.13;;;;;;;9.22;84.86;98734.13;5058929;28;20460;-85
2021/12/29 02:06:43;;;;;;;11.65;1.80;;;;;;;9.22;84.81;98742.91;5076597;28;20037;-85
2021/12/29 02:09:10;;;;;;;7.30;1.73;;;;;;;9.22;84.78;98739.44;5062898;28;20177;-85
2021/12/29 02:11:37;;;;;;;4.93;1.55;;;;;;;9.21;84.99;98741.25;5058436;28;20040;-85
2021/12/29 02:14:06;;;;;;;10.93;1.40;;;;;;;9.23;84.75;98746.38;5032556;28;20048;-85
2021/12/29 02:16:34;;;;;;;12.82;1.98;;;;;;;9.21;84.87;98759.78;5059582;28;20047;-85
2021/12/29 02:19:03;;;;;;;7.43;1.77;;;;;;;9.24;84.77;98762.13;5060373;28;20127;-85
2021/12/29 02:21:32;;;;;;;9.70;2.08;;;;;;;9.20;84.83;98773.19;5061874;28;20044;-85
2021/12/29 02:26:38;;;;;;;11.27;1.95;;;;;;;9.22;84.81;98789.75;5045124;28;20132;-86
2021/12/29 02:29:11;;;;;;;12.57;1.83;;;;;;;9.17;84.67;98790.19;5051672;28;20102;-85
2021/12/29 02:31:40;;;;;;;13.88;2.63;;;;;;;9.21;84.61;98796.88;5059392;28;20044;-85
2021/12/29 02:34:10;;;;;;;6.85;1.60;;;;;;;9.20;84.55;98800.47;5028365;28;20404;-85
2021/12/29 02:36:43;;;;;;;11.25;1.83;;;;;;;9.20;84.87;98804.97;5046048;28;20377;-85
2021/12/29 02:39:16;;;;;;;15.80;2.03;;;;;;;9.19;84.57;98809.44;5062029;28;20115;-85
2021/12/29 02:41:52;;;;;;;15.57;2.15;;;;;;;9.18;84.68;98810.41;5039078;28;20853;-85
2021/12/29 02:44:26;;;;;;;9.30;1.42;;;;;;;9.17;84.77;98827.28;5007384;28;20127;-85
2021/12/29 02:46:55;;;;;;;10.57;1.95;;;;;;;9.19;84.91;98841.22;5061684;28;22473;-85
2021/12/29 02:49:22;;;;;;;9.10;1.70;;;;;;;9.21;84.88;98841.03;5055905;28;20044;-85
2021/12/29 02:51:49;;;;;;;16.00;1.92;;;;;;;9.23;84.44;98847.84;5060359;28;20144;-85
2021/12/29 02:54:16;;;;;;;5.85;1.48;;;;;;;9.21;84.59;98859.59;5064215;28;20638;-85
2021/12/29 02:56:48;;;;;;;18.27;2.30;;;;;;;9.19;84.76;98853.63;5070656;28;20120;-85
2021/12/29 02:59:16;;;;;;;18.17;2.20;;;;;;;9.21;84.97;98873.69;5037554;28;20128;-84
2021/12/29 03:01:43;;;;;;;7.05;1.33;;;;;;;9.22;84.95;98871.88;5075457;28;20376;-85
2021/12/29 03:04:11;;;;;;;11.98;2.55;;;;;;;9.22;85.00;98877.16;5057989;28;20075;-85
2021/12/29 03:06:39;;;;;;;10.13;1.65;;;;;;;9.23;84.77;98892.88;5078362;28;20047;-85
2021/12/29 03:09:08;;;;;;;8.98;1.65;;;;;;;9.23;84.88;98884.13;5062747;28;20048;-85
2021/12/29 03:11:36;;;;;;;11.02;2.53;;;;;;;9.23;84.85;98877.00;5042233;28;20093;-85
2021/12/29 03:14:04;;;;;;;11.18;1.50;;;;;;;9.24;84.49;98860.13;5052248;28;20078;-85
2021/12/29 03:16:33;;;;;;;11.85;1.85;;;;;;;9.23;84.54;98861.09;5047509;28;20040;-85
2021/12/29 03:19:02;;;;;;;5.95;1.38;;;;;;;9.25;84.56;98853.00;5062724;28;20048;-85
2021/12/29 03:21:30;;;;;;;9.45;1.95;;;;;;;9.24;84.60;98864.59;5062261;28;20047;-85
2021/12/29 03:23:57;;;;;;;10.18;1.50;;;;;;;9.22;84.46;98871.88;5060108;28;20041;-85
2021/12/29 03:26:24;;;;;;;10.13;1.92;;;;;;;9.23;84.54;98887.59;5063576;28;20102;-85
2021/12/29 03:28:51;;;;;;;13.40;1.60;;;;;;;9.25;84.47;98888.28;5062298;28;20046;-85
2021/12/29 03:31:21;;;;;;;9.70;1.52;;;;;;;9.23;84.45;98884.13;5068611;28;20062;-85
2021/12/29 03:33:48;;;;;;;8.45;1.60;;;;;;;9.22;84.23;98893.88;5075216;28;20490;-85
2021/12/29 03:36:16;;;;;;;17.58;2.30;;;;;;;9.22;84.26;98887.75;5040092;28;20052;-85
2021/12/29 03:38:43;;;;;;;7.63;1.73;;;;;;;9.20;84.21;98884.41;5045998;28;20518;-85
2021/12/29 03:41:14;;;;;;;10.95;1.90;;;;;;;9.18;84.21;98881.91;5049370;28;20052;-85
2021/12/29 03:43:42;;;;;;;7.50;1.60;;;;;;;9.18;84.30;98891.69;5046938;28;20052;-84
2021/12/29 03:46:09;;;;;;;9.48;1.65;;;;;;;9.20;84.45;98887.91;5061933;28;20126;-85
2021/12/29 03:48:37;;;;;;;10.80;1.45;;;;;;;9.23;84.41;98894.72;5064491;28;20109;-85
2021/12/29 03:51:04;;;;;;;8.32;1.52;;;;;;;9.22;84.34;98893.06;5067385;28;20490;-85
2021/12/29 03:53:32;;;;;;;4.50;1.30;;;;;;;9.22;84.34;98893.06;5040176;28;20055;-83
2021/12/29 03:55:59;;;;;;;5.35;1.42;;;;;;;9.22;84.18;98909.78;5053707;28;20052;-85
2021/12/29 03:58:27;;;;;;;11.15;2.17;;;;;;;9.21;84.30;98905.47;5045629;28;20131;-85
2021/12/29 04:01:04;;;;;;;9.35;1.48;;;;;;;9.17;84.13;98911.22;5079624;28;20414;-85
2021/12/29 04:03:31;;;;;;;5.25;1.70;;;;;;;9.19;84.33;98925.16;5059725;28;20052;-85
2021/12/29 04:05:58;;;;;;;7.97;1.35;;;;;;;9.18;84.63;98940.19;5074545;28;20051;-85
2021/12/29 04:08:25;;;;;;;4.63;1.33;;;;;;;9.20;84.52;98935.56;5063082;28;20044;-85
2021/12/29 04:10:51;;;;;;;6.22;1.60;;;;;;;9.18;84.43;98940.19;5063585;28;20113;-85
2021/12/29 04:13:18;;;;;;;9.43;1.33;;;;;;;9.19;84.55;98933.91;5060989;28;20116;-85
2021/12/29 04:15:45;;;;;;;5.85;1.73;;;;;;;9.19;84.33;98933.91;5078307;28;20060;-83
2021/12/29 04:18:15;;;;;;;7.28;1.38;;;;;;;9.20;84.40;98927.63;5068625;28;20514;-85
2021/12/29 04:20:57;;;;;;;7.97;1.20;;;;;;;9.21;84.43;98942.56;5063087;28;20119;-85
2021/12/29 04:23:27;;;;;;;4.82;1.58;;;;;;;9.23;84.43;98945.03;5017509;28;20519;-85
2021/12/29 04:25:55;;;;;;;9.35;2.33;;;;;;;9.21;84.12;98942.56;5050559;28;20044;-85
2021/12/29 04:28:25;;;;;;;7.20;1.60;;;;;;;9.22;84.42;98936.25;5068160;28;20056;-85
2021/12/29 04:30:58;;;;;;;8.10;2.67;;;;;;;9.19;84.21;98943.69;5051035;28;20045;-86
2021/12/29 04:33:27;;;;;;;6.88;1.30;;;;;;;9.23;84.27;98953.81;5043346;28;20045;-85
2021/12/29 04:35:54;;;;;;;9.27;1.65;;;;;;;9.27;84.20;98967.59;5061221;28;20052;-85
2021/12/29 04:38:21;;;;;;;5.72;1.10;;;;;;;9.24;84.26;98973.22;5059555;28;20049;-85
2021/12/29 04:40:50;;;;;;;7.30;1.63;;;;;;;9.21;84.51;98977.00;5054794;28;20052;-85
2021/12/29 04:43:18;;;;;;;8.25;1.52;;;;;;;9.21;84.43;98982.28;5017428;28;20053;-85
2021/12/29 04:45:46;;;;;;;7.88;1.50;;;;;;;9.22;84.52;98989.25;5056361;28;20510;-85
2021/12/29 04:48:14;;;;;;;8.40;1.85;;;;;;;9.23;84.49;98988.25;5057264;28;20067;-85
2021/12/29 04:50:49;;;;;;;7.60;1.92;;;;;;;9.25;84.27;98990.75;5067970;28;20043;-85
2021/12/29 04:53:18;;;;;;;6.15;1.48;;;;;;;9.26;84.30;98992.41;5056518;28;20048;-85
2021/12/29 04:55:49;;;;;;;7.18;1.50;;;;;;;9.22;83.89;98994.53;5041299;28;20040;-85
2021/12/29 04:58:18;;;;;;;4.05;1.25;;;;;;;9.23;84.16;98988.25;5056443;28;20056;-85
2021/12/29 05:00:46;;;;;;;6.35;1.50;;;;;;;9.28;83.80;98988.63;5027347;28;20075;-85
2021/12/29 05:03:14;;;;;;;8.32;1.35;;;;;;;9.26;83.80;99006.53;5060066;28;20044;-85
2021/12/29 05:08:29;;;;;;;9.32;2.70;;;;;;;9.22;83.78;99009.59;4986854;28;20078;-86
2021/12/29 05:11:03;;;;;;;7.45;1.73;;;;;;;9.20;83.85;99019.50;5025166;28;20454;-85
2021/12/29 05:13:31;;;;;;;5.00;1.30;;;;;;;9.23;83.83;99019.22;5076959;28;20049;-85
2021/12/29 05:15:59;;;;;;;6.95;1.38;;;;;;;9.23;84.08;99024.50;5050895;28;20082;-86
2021/12/29 05:18:28;;;;;;;5.80;1.45;;;;;;;9.24;83.83;99023.53;5076682;28;20040;-85
2021/12/29 05:20:55;;;;;;;5.03;1.08;;;;;;;9.23;84.12;99032.44;5045867;28;20044;-85
2021/12/29 05:23:22;;;;;;;5.25;1.27;;;;;;;9.27;83.78;99033.84;5030802;28;20048;-85
2021/12/29 05:25:49;;;;;;;3.60;1.75;;;;;;;9.22;83.99;99044.88;5063311;28;20056;-86
2021/12/29 05:28:19;;;;;;;5.38;1.40;;;;;;;9.23;84.05;99040.41;5051599;28;20044;-85
2021/12/29 05:30:48;;;;;;;10.20;1.40;;;;;;;9.21;84.21;99051.16;5060366;28;20040;-85
2021/12/29 05:33:16;;;;;;;5.25;1.35;;;;;;;9.23;84.24;99043.03;5077637;28;20063;-84
2021/12/29 05:35:43;;;;;;;3.30;1.20;;;;;;;9.23;84.30;99054.47;5073762;28;20051;-85
2021/12/29 05:38:36;;;;;;;5.90;1.55;;;;;;;9.12;84.26;99058.16;5074405;28;20057;-85
2021/12/29 05:41:03;;;;;;;2.88;1.02;;;;;;;9.21;84.32;99056.47;5030781;28;20396;-85
2021/12/29 05:43:30;;;;;;;4.30;1.20;;;;;;;9.25;84.38;99062.28;5074739;28;20037;-85
2021/12/29 05:45:56;;;;;;;2.60;1.10;;;;;;;9.24;84.19;99061.47;5061443;28;20048;-85
2021/12/29 05:48:23;;;;;;;7.40;1.85;;;;;;;9.25;84.36;99060.47;5059942;28;20036;-86
2021/12/29 05:50:50;;;;;;;6.93;1.33;;;;;;;9.26;84.30;99069.25;5059761;28;20033;-84
2021/12/29 05:53:16;;;;;;;4.65;1.20;;;;;;;9.26;84.45;99086.00;5053981;28;20041;-85
2021/12/29 05:55:43;;;;;;;6.55;1.50;;;;;;;9.25;84.12;99083.47;5042916;28;20044;-85
2021/12/29 05:58:10;;;;;;;4.53;1.50;;;;;;;9.27;84.15;99086.81;5080236;28;20435;-85
2021/12/29 06:00:39;;;;;;;5.15;1.10;;;;;;;9.27;84.16;99087.66;5056020;28;20045;-86
2021/12/29 06:03:07;;;;;;;3.08;0.95;;;;;;;9.26;84.02;99074.53;5053008;28;20067;-85
2021/12/29 06:05:34;;;;;;;6.70;1.45;;;;;;;9.26;84.18;99077.19;5059771;28;20055;-85
2021/12/29 06:08:01;;;;;;;3.67;1.00;;;;;;;9.26;84.19;99078.03;5073678;28;20052;-85
2021/12/29 06:10:28;;;;;;;4.28;1.17;;;;;;;9.26;83.85;99088.66;5058033;28;20049;-85
2021/12/29 06:12:55;;;;;;;4.53;0.90;;;;;;;9.27;83.83;99078.88;5045613;28;20396;-85
2021/12/29 06:15:22;;;;;;;3.17;1.00;;;;;;;9.27;83.91;99089.47;5071495;28;20056;-85
2021/12/29 06:17:49;;;;;;;8.93;1.10;;;;;;;9.26;83.88;99087.78;5062175;28;20399;-85
2021/12/29 06:20:17;;;;;;;2.67;1.13;;;;;;;9.24;83.57;99087.13;5058770;28;20369;-85
2021/12/29 06:22:44;;;;;;;2.67;0.98;;;;;;;9.25;83.68;99073.72;5045861;28;20454;-85
2021/12/29 06:25:13;;;;;;;3.55;1.20;;;;;;;9.25;83.39;99078.19;5059583;28;20106;-85
2021/12/29 06:27:39;;;;;;;3.90;1.08;;;;;;;9.25;83.62;99075.53;5034436;28;20476;-85
2021/12/29 06:30:09;;;;;;;3.92;0.75;;;;;;;9.25;83.57;99075.53;5056777;28;20468;-85
2021/12/29 06:32:36;;;;;;;3.58;0.82;;;;;;;9.25;83.70;99084.31;5078431;28;20105;-85
2021/12/29 06:35:04;;;;;;;2.13;1.10;;;;;;;9.24;83.50;99085.31;5055291;28;20054;-85
2021/12/29 06:37:30;;;;;;;5.30;2.28;;;;;;;9.24;83.44;99101.19;5081625;28;20036;-85
2021/12/29 06:39:57;;;;;;;4.13;1.30;;;;;;;9.24;83.44;99105.66;5058621;28;20045;-85
2021/12/29 06:42:24;;;;;;;5.75;1.70;;;;;;;9.25;83.50;99124.03;5079993;28;20041;-88
2021/12/29 06:45:18;;;;;;;2.38;1.13;;;;;;;9.12;83.38;99124.38;5059976;28;20566;-89
2021/12/29 06:47:45;;;;;;;4.90;1.20;;;;;;;9.25;83.58;99117.91;5053712;28;21096;-82
2021/12/29 06:50:12;;;;;;;2.35;1.00;;;;;;;9.25;83.68;99131.16;5057806;28;20503;-88
2021/12/29 06:52:38;;;;;;;3.60;1.23;;;;;;;9.25;83.58;99134.63;5060516;28;20071;-89
2021/12/29 06:55:06;;;;;;;1.80;0.82;;;;;;;9.26;83.51;99143.41;5067142;28;20106;-88
2021/12/29 06:57:33;;;;;;;4.32;1.10;;;;;;;9.25;83.39;99147.88;5076654;28;20049;-88
2021/12/29 06:59:59;;;;;;;2.28;0.93;;;;;;;9.26;83.73;99159.31;5067130;28;20044;-88
2021/12/29 07:02:27;;;;;;;3.17;1.25;;;;;;;9.26;83.59;99167.25;5059398;28;20067;-88
2021/12/29 07:04:54;;;;;;;7.43;2.78;;;;;;;9.26;83.79;99178.72;5053701;28;20577;-89
2021/12/29 07:07:21;;;;;;;6.68;2.92;;;;;;;9.27;83.47;99190.97;5072151;28;20676;-89
2021/12/29 07:09:47;;;;;;;3.35;1.90;;;;;;;9.26;83.63;99181.38;5047109;28;20040;-89
2021/12/29 07:12:14;;;;;;;3.85;1.58;;;;;;;9.28;83.63;99194.44;5075177;28;20048;-88
2021/12/29 07:14:41;;;;;;;1.88;1.05;;;;;;;9.29;83.70;99190.84;5062342;28;20446;-89
2021/12/29 07:17:08;;;;;;;4.50;1.65;;;;;;;9.28;83.63;99197.94;5060911;28;20037;-89
2021/12/29 07:19:34;;;;;;;4.55;1.75;;;;;;;9.27;83.61;99196.28;5072829;28;20037;-89
2021/12/29 07:22:03;;;;;;;3.00;1.33;;;;;;;9.28;83.69;99197.09;5071833;28;20051;-88
2021/12/29 07:24:31;;;;;;;6.95;1.33;;;;;;;9.30;83.53;99203.94;5060166;28;20055;-89
2021/12/29 07:26:58;;;;;;;5.53;1.52;;;;;;;9.29;83.50;99204.09;5067104;28;20044;-89
2021/12/29 07:29:24;;;;;;;1.77;1.00;;;;;;;9.30;83.45;99208.41;5043439;28;20060;-88
2021/12/29 07:31:53;;;;;;;2.85;1.00;;;;;;;9.30;83.56;99214.53;5044444;28;20470;-89
2021/12/29 07:34:20;;;;;;;8.52;1.67;;;;;;;9.33;83.38;99216.88;5063289;28;20041;-89
2021/12/29 07:36:47;;;;;;;3.28;0.98;;;;;;;9.30;83.27;99216.34;5061335;28;20044;-88
2021/12/29 07:39:14;;;;;;;1.58;1.02;;;;;;;9.30;83.42;99211.88;5057672;28;20044;-88
2021/12/29 07:41:43;;;;;;;1.70;1.00;;;;;;;9.29;83.47;99223.47;5055417;28;20040;-89
2021/12/29 07:44:17;;;;;;;2.65;1.27;;;;;;;9.28;83.64;99232.38;5054425;28;20056;-88
2021/12/29 07:46:47;;;;;;;4.38;1.60;;;;;;;9.28;83.43;99235.03;5057508;28;20052;-88
2021/12/29 07:49:14;;;;;;;7.97;1.98;;;;;;;9.28;83.42;99234.19;5069463;28;20055;-87
2021/12/29 07:51:41;;;;;;;6.53;2.03;;;;;;;9.28;83.54;99237.66;5051862;28;20052;-88
2021/12/29 07:54:09;;;;;;;6.32;1.75;;;;;;;9.29;83.51;99238.53;5073881;28;20101;-88
2021/12/29 07:56:36;;;;;;;7.43;1.60;;;;;;;9.28;83.54;99240.31;5059909;28;20040;-87
2021/12/29 07:59:03;;;;;;;4.82;2.00;;;;;;;9.30;83.70;99234.88;5068102;28;20492;-89
2021/12/29 08:01:29;;;;;;;4.00;1.10;;;;;;;9.30;83.27;99237.53;5068847;28;20493;-89
2021/12/29 08:03:56;;;;;;;2.83;1.50;;;;;;;9.30;83.76;99241.00;5074390;28;20053;-86
2021/12/29 08:06:25;;;;;;;4.38;1.80;;;;;;;9.30;83.47;99237.53;5074991;28;20512;-87
2021/12/29 08:08:54;;;;;;;6.63;2.05;;;;;;;9.30;83.43;99242.84;5059039;28;20047;-88
2021/12/29 08:11:21;;;;;;;5.80;2.03;;;;;;;9.31;83.59;99248.00;5057201;28;20074;-88
2021/12/29 08:13:48;;;;;;;4.55;1.48;;;;;;;9.32;83.37;99254.13;5044000;28;20071;-86
2021/12/29 08:16:15;;;;;;;3.08;1.35;;;;;;;9.32;83.52;99254.97;5039163;28;20055;-88
2021/12/29 08:18:42;;;;;;;3.60;1.42;;;;;;;9.31;83.54;99265.69;5047296;28;20055;-88
2021/12/29 08:21:09;;;;;;;7.93;1.70;;;;;;;9.33;83.53;99263.75;5058598;28;20041;-87
2021/12/29 08:23:35;;;;;;;5.13;0.90;;;;;;;9.31;83.48;99263.91;5059908;28;20052;-88
2021/12/29 08:26:02;;;;;;;6.20;1.13;;;;;;;9.34;83.36;99268.09;5048058;28;20524;-87
2021/12/29 08:28:29;;;;;;;4.03;1.20;;;;;;;9.34;83.51;99276.88;5053404;28;20047;-88
2021/12/29 08:30:56;;;;;;;4.10;1.40;;;;;;;9.33;83.43;99274.34;5076184;28;20055;-89
2021/12/29 08:33:23;;;;;;;5.80;1.63;;;;;;;9.34;83.29;99282.16;5059051;28;20101;-88
2021/12/29 08:35:50;;;;;;;5.95;2.47;;;;;;;9.32;83.37;99270.03;5043136;28;20094;-89
2021/12/29 08:38:17;;;;;;;9.90;3.15;;;;;;;9.33;83.36;99279.63;5056792;28;20469;-89
2021/12/29 08:40:44;;;;;;;5.50;1.85;;;;;;;9.33;83.41;99282.28;5046000;28;20547;-87
2021/12/29 08:43:12;;;;;;;6.85;2.30;;;;;;;9.34;83.53;99260.97;5062979;28;20052;-88
2021/12/29 08:46:08;;;;;;;7.28;2.28;;;;;;;9.23;83.42;99266.41;5047284;28;20045;-89
2021/12/29 08:48:37;;;;;;;5.70;2.03;;;;;;;9.33;83.34;99261.91;5008937;28;20424;-88
2021/12/29 08:51:04;;;;;;;6.57;2.33;;;;;;;9.34;83.49;99255.66;5045931;28;20068;-88
2021/12/29 08:53:57;;;;;;;5.70;1.70;;;;;;;9.22;83.26;99275.34;5064463;28;20441;-88
2021/12/29 08:56:24;;;;;;;6.68;2.10;;;;;;;9.32;83.56;99278.81;5008154;28;20516;-86
2021/12/29 08:58:52;;;;;;;7.72;2.35;;;;;;;9.35;83.22;99278.53;5050134;28;20447;-90
2021/12/29 09:01:20;;;;;;;8.50;2.30;;;;;;;9.35;83.39;99281.16;5047957;28;20048;-90
2021/12/29 09:03:48;;;;;;;5.53;2.40;;;;;;;9.37;83.20;99290.81;5053988;28;20044;-91
2021/12/29 09:06:16;;;;;;;7.40;2.67;;;;;;;9.39;83.05;99291.47;5066557;28;20044;-88
2021/12/29 09:09:33;;;;;;;11.07;2.22;;;;;;;9.25;83.31;99290.13;5051340;28;20689;-90
2021/12/29 09:12:00;;;;;;;5.88;2.60;;;;;;;9.35;83.63;99285.63;4970112;28;20048;-89
2021/12/29 09:14:27;;;;;;;7.72;2.47;;;;;;;9.37;83.56;99285.50;5077330;28;20048;-89
2021/12/29 09:16:53;;;;;;;6.78;2.03;;;;;;;9.39;83.58;99300.28;5061515;28;20044;-92
2021/12/29 09:19:22;;;;;;;5.25;2.05;;;;;;;9.39;83.63;99300.28;5050335;28;20506;-87
2021/12/29 09:21:53;;;;;;;5.22;2.20;;;;;;;9.38;83.63;99297.78;5061491;28;20742;-87
2021/12/29 09:24:20;;;;;;;6.65;2.33;;;;;;;9.39;83.47;99292.34;5064711;28;20048;-86
2021/12/29 09:26:47;;;;;;;6.75;2.17;;;;;;;9.39;83.53;99304.72;5063252;28;20056;-86
2021/12/29 09:29:14;;;;;;;6.53;2.45;;;;;;;9.42;83.81;99309.78;5064517;28;20053;-88
2021/12/29 09:31:41;;;;;;;4.75;1.95;;;;;;;9.40;83.59;99315.19;5059102;28;20054;-88
2021/12/29 09:34:12;;;;;;;3.88;2.00;;;;;;;9.40;83.62;99317.84;5063650;28;20066;-89
2021/12/29 09:36:39;;;;;;;6.10;2.10;;;;;;;9.41;83.66;99324.81;5029971;28;20499;-91
2021/12/29 09:39:07;;;;;;;8.55;2.40;;;;;;;9.42;83.71;99331.81;5060227;28;20083;-88
2021/12/29 09:41:34;;;;;;;5.30;2.13;;;;;;;9.43;84.04;99333.47;5045096;28;20051;-88
2021/12/29 09:44:04;;;;;;;3.55;1.80;;;;;;;9.45;84.07;99334.16;5062304;28;20040;-88
2021/12/29 09:46:31;;;;;;;6.10;2.10;;;;;;;9.47;83.98;99336.69;5051822;28;20048;-88
2021/12/29 09:49:00;;;;;;;4.43;1.85;;;;;;;9.48;83.91;99330.41;5060039;28;20438;-89
2021/12/29 09:51:28;;;;;;;7.90;2.00;;;;;;;9.48;83.79;99327.75;5063705;28;20039;-88
2021/12/29 09:53:55;;;;;;;8.98;2.33;;;;;;;9.48;83.91;99333.03;5076669;28;20052;-88
2021/12/29 09:56:22;;;;;;;8.48;2.42;;;;;;;9.49;83.91;99332.91;5067800;28;20052;-87
2021/12/29 09:58:49;;;;;;;10.02;2.30;;;;;;;9.50;84.12;99336.41;5013063;28;20408;-90
2021/12/29 10:01:18;;;;;;;10.80;2.78;;;;;;;9.50;83.73;99342.53;5072535;28;20047;-93
2021/12/29 10:03:46;;;;;;;9.82;2.63;;;;;;;9.54;83.97;99340.41;5078679;28;20040;-89
2021/12/29 10:06:13;;;;;;;7.50;2.58;;;;;;;9.53;84.04;99331.63;5065682;28;20075;-92
2021/12/29 10:08:44;;;;;;;9.75;2.45;;;;;;;9.53;83.95;99334.28;5081508;28;20032;-93
2021/12/29 10:11:37;;;;;;;11.77;2.03;;;;;;;9.43;83.94;99340.59;5063050;28;20049;-90
2021/12/29 10:14:13;;;;;;;17.40;3.08;;;;;;;9.48;83.64;99325.94;5055383;28;20052;-89
2021/12/29 10:16:41;;;;;;;10.80;2.17;;;;;;;9.55;83.55;99332.34;5061250;28;20047;-91
2021/12/29 10:19:12;;;;;;;20.10;6.82;;;;;;;9.56;83.51;99325.22;5046402;28;20395;-91
2021/12/29 10:21:45;;;;;;;12.50;3.55;;;;;;;9.53;83.45;99328.16;5045063;28;20124;-92
2021/12/29 10:24:12;;;;;;;10.45;4.30;;;;;;;9.56;83.32;99333.16;5047156;28;20094;-92
2021/12/29 10:26:45;;;;;;;18.90;5.50;;;;;;;9.51;83.35;99323.00;5064978;28;20098;-87
2021/12/29 10:29:14;;;;;;;14.73;4.65;;;;;;;9.54;83.48;99322.72;5041547;28;20048;-89
2021/12/29 10:31:48;;;;;;;5.45;3.45;;;;;;;9.54;83.51;99325.38;5049706;28;20119;-89
2021/12/29 10:34:19;;;;;;;10.68;2.67;;;;;;;9.54;83.61;99335.13;5036553;28;20408;-89
2021/12/29 10:36:53;;;;;;;15.32;3.67;;;;;;;9.56;83.34;99336.66;5060414;28;20576;-91
2021/12/29 10:39:32;;;;;;;10.65;2.70;;;;;;;9.51;83.43;99330.94;5055607;28;20047;-89
2021/12/29 10:42:06;;;;;;;11.18;2.55;;;;;;;9.57;83.37;99330.38;5078490;28;20063;-89
2021/12/29 10:44:37;;;;;;;15.43;3.17;;;;;;;9.57;83.53;99334.84;5077427;28;20033;-88
2021/12/29 10:47:22;;;;;;;12.00;3.78;;;;;;;9.51;83.42;99332.75;5066085;28;20063;-89
2021/12/29 10:49:53;;;;;;;8.05;2.38;;;;;;;9.61;83.30;99340.69;5032581;28;20040;-88
2021/12/29 10:52:38;;;;;;;12.88;2.55;;;;;;;9.52;83.03;99342.41;5064571;28;20040;-88
2021/12/29 10:55:35;;;;;;;9.73;2.25;;;;;;;9.56;83.02;99346.41;5064812;28;20385;-88
2021/12/29 10:58:28;;;;;;;9.82;2.58;;;;;;;9.48;83.05;99343.66;5032876;28;20040;-91
2021/12/29 11:01:20;;;;;;;9.95;2.50;;;;;;;9.48;83.03;99346.28;5051887;28;20047;-92
2021/12/29 11:03:58;;;;;;;8.23;2.63;;;;;;;9.61;82.85;99348.66;5052887;28;20044;-87
2021/12/29 11:06:27;;;;;;;7.88;2.60;;;;;;;9.60;83.08;99337.22;5025653;28;20055;-90
2021/12/29 11:13:43;;;;;;;7.57;2.03;;;;;;;9.57;83.05;99342.81;5065705;28;20096;-90
2021/12/29 11:16:10;;;;;;;9.55;2.60;;;;;;;9.60;82.98;99339.88;5029224;28;20055;-89
2021/12/29 11:18:42;;;;;;;7.75;1.65;;;;;;;9.58;82.83;99339.16;5066909;28;20126;-89
2021/12/29 11:21:09;;;;;;;5.00;2.00;;;;;;;9.61;82.85;99332.75;5049071;28;20389;-90
2021/12/29 11:23:41;;;;;;;10.90;2.33;;;;;;;9.63;82.60;99336.09;5048576;28;20054;-90
2021/12/29 11:26:35;;;;;;;6.93;1.90;;;;;;;9.48;82.72;99331.22;5040851;28;20116;-90
2021/12/29 11:29:08;;;;;;;14.13;2.60;;;;;;;9.57;82.84;99324.25;5027224;28;20051;-90
2021/12/29 11:36:33;;;;;;;6.65;2.03;;;;;;;9.42;83.09;99312.41;5031604;28;20036;-91
2021/12/29 11:43:31;;;;;;;15.00;2.90;;;;;;;9.52;83.19;99314.06;5054062;28;20044;-89
2021/12/29 11:46:28;;;;;;;10.82;2.67;;;;;;;9.41;83.20;99310.72;5039333;28;20040;-90
2021/12/29 11:49:04;;;;;;;10.32;2.55;;;;;;;9.50;83.19;99312.53;5002512;28;20053;-91
2021/12/29 11:51:57;;;;;;;16.50;2.90;;;;;;;9.41;83.33;99314.22;5062427;28;20040;-89
2021/12/29 11:54:53;;;;;;;8.70;2.47;;;;;;;9.40;83.44;99324.97;5000545;28;20044;-90
2021/12/29 11:57:23;;;;;;;10.20;2.35;;;;;;;9.51;83.43;99323.00;5046373;28;20495;-90
2021/12/29 12:00:41;;;;;;;6.50;2.55;;;;;;;9.43;83.39;99328.16;5051091;28;20483;-90
2021/12/29 12:03:15;;;;;;;12.25;6.07;;;;;;;9.59;83.94;99329.41;5001249;28;20068;-90
2021/12/29 12:05:43;;;;;;;;;;;;;;;9.41;84.40;99324.81;5054103;28;20043;-90
2021/12/29 12:09:00;;;;;;;12.73;3.13;;;;;;;9.48;84.17;99312.69;5050036;28;20022;-92
2021/12/29 12:11:29;;;;;;;11.05;2.95;;;;;;;9.60;84.06;99310.72;4940358;28;20044;-91
2021/12/29 12:13:56;;;;;;;10.88;3.15;;;;;;;9.61;84.21;99317.69;5008322;28;20048;-92